Millbach Springs, Pennsylvania
Current Conditions -  °F | °C
As of 11:53 AM on Friday 24 Oct 2014 (Local Time) from KLNS Reporting Station
Few Clouds Few Clouds  
Wind Chill: 17°   Ceiling: Unl
Heat Index: 17°   Visibility: 10mi
Dew Point:   Wind: 15mph
Humidity: 50%   Direction: 320°NW
Pressure: 29.92"   Gusts: 22mph
Location:  40.3035°N, 76.254°W
Report Text: KLNS 241553Z 32013G19KT 10SM FEW045 17/07 A2992 RMK AO2 SLP130 T01720067
Loading
Personal Weather Stations






























Interactive Weather Map
Tropical Storm Tracking
New forecast layout! Learn more

10-Day Weather Forecast

Advertisements
Track Severe Weather on mobile